sensor_id;sensor_type;location;lat;lon;timestamp;pressure;altitude;pressure_sealevel;temperature;humidity
1726;BME280;41776;48.260;8.928;2023-03-16T00:02:12;52543.41;;;-145.69;100.00
1726;BME280;41776;48.260;8.928;2023-03-16T00:04:38;52559.25;;;-145.69;100.00
1726;BME280;41776;48.260;8.928;2023-03-16T00:07:06;52539.44;;;-145.69;100.00
1726;BME280;41776;48.260;8.928;2023-03-16T00:09:33;52557.28;;;-145.69;100.00
1726;BME280;41776;48.260;8.928;2023-03-16T00:12:08;52549.34;;;-145.69;100.00
1726;BME280;41776;48.260;8.928;2023-03-16T00:14:40;52571.13;;;-145.69;100.00
1726;BME280;41776;48.260;8.928;2023-03-16T00:17:08;52541.44;;;-145.69;100.00
1726;BME280;41776;48.260;8.928;2023-03-16T00:19:34;52555.28;;;-145.69;100.00
1726;BME280;41776;48.260;8.928;2023-03-16T00:22:01;52519.63;;;-145.69;100.00
1726;BME280;41776;48.260;8.928;2023-03-16T00:24:27;52559.25;;;-145.69;100.00
1726;BME280;41776;48.260;8.928;2023-03-16T00:26:54;52535.47;;;-145.69;100.00
1726;BME280;41776;48.260;8.928;2023-03-16T00:29:21;52567.16;;;-145.69;100.00
1726;BME280;41776;48.260;8.928;2023-03-16T00:31:48;52586.97;;;-145.69;100.00
1726;BME280;41776;48.260;8.928;2023-03-16T00:34:14;52533.50;;;-145.69;100.00
1726;BME280;41776;48.260;8.928;2023-03-16T00:36:41;52527.56;;;-145.69;100.00
1726;BME280;41776;48.260;8.928;2023-03-16T00:39:07;52555.28;;;-145.69;100.00
1726;BME280;41776;48.260;8.928;2023-03-16T00:41:35;52541.44;;;-145.69;100.00
1726;BME280;41776;48.260;8.928;2023-03-16T00:44:03;52537.47;;;-145.69;100.00
1726;BME280;41776;48.260;8.928;2023-03-16T00:46:31;52559.25;;;-145.69;100.00
1726;BME280;41776;48.260;8.928;2023-03-16T00:48:57;52537.47;;;-145.69;100.00
1726;BME280;41776;48.260;8.928;2023-03-16T00:51:24;52543.41;;;-145.69;100.00
1726;BME280;41776;48.260;8.928;2023-03-16T00:53:50;52549.34;;;-145.69;100.00
1726;BME280;41776;48.260;8.928;2023-03-16T00:56:17;52559.25;;;-145.69;100.00
1726;BME280;41776;48.260;8.928;2023-03-16T00:58:44;52541.44;;;-145.69;100.00
1726;BME280;41776;48.260;8.928;2023-03-16T01:01:12;52573.13;;;-145.69;100.00
1726;BME280;41776;48.260;8.928;2023-03-16T01:03:41;52561.22;;;-145.69;100.00
1726;BME280;41776;48.260;8.928;2023-03-16T01:06:09;52531.53;;;-145.69;100.00
1726;BME280;41776;48.260;8.928;2023-03-16T01:08:37;52559.25;;;-145.69;100.00
1726;BME280;41776;48.260;8.928;2023-03-16T01:11:06;52553.31;;;-145.69;100.00
1726;BME280;41776;48.260;8.928;2023-03-16T01:13:32;52541.44;;;-145.69;100.00
1726;BME280;41776;48.260;8.928;2023-03-16T01:15:59;52547.38;;;-145.69;100.00
1726;BME280;41776;48.260;8.928;2023-03-16T01:18:26;52561.22;;;-145.69;100.00
1726;BME280;41776;48.260;8.928;2023-03-16T01:20:54;52535.47;;;-145.69;100.00
1726;BME280;41776;48.260;8.928;2023-03-16T01:23:21;52555.28;;;-145.69;100.00
1726;BME280;41776;48.260;8.928;2023-03-16T01:25:47;52527.56;;;-145.69;100.00
1726;BME280;41776;48.260;8.928;2023-03-16T01:28:18;52545.38;;;-145.69;100.00
1726;BME280;41776;48.260;8.928;2023-03-16T01:30:44;52569.16;;;-145.69;100.00
1726;BME280;41776;48.260;8.928;2023-03-16T01:33:11;52563.22;;;-145.69;100.00
1726;BME280;41776;48.260;8.928;2023-03-16T01:35:37;52533.50;;;-145.69;100.00
1726;BME280;41776;48.260;8.928;2023-03-16T01:38:05;52535.47;;;-145.69;100.00
1726;BME280;41776;48.260;8.928;2023-03-16T01:40:32;52549.34;;;-145.69;100.00
1726;BME280;41776;48.260;8.928;2023-03-16T01:43:00;52543.41;;;-145.69;100.00
1726;BME280;41776;48.260;8.928;2023-03-16T01:45:54;52598.84;;;-145.69;100.00
1726;BME280;41776;48.260;8.928;2023-03-16T01:48:34;52533.50;;;-145.69;100.00
1726;BME280;41776;48.260;8.928;2023-03-16T01:51:04;52551.31;;;-145.69;100.00
1726;BME280;41776;48.260;8.928;2023-03-16T01:53:34;52547.38;;;-145.69;100.00
1726;BME280;41776;48.260;8.928;2023-03-16T01:56:03;52529.53;;;-145.69;100.00
1726;BME280;41776;48.260;8.928;2023-03-16T01:58:33;52561.22;;;-145.69;100.00
1726;BME280;41776;48.260;8.928;2023-03-16T02:01:01;52555.28;;;-145.69;100.00
1726;BME280;41776;48.260;8.928;2023-03-16T02:03:29;52583.00;;;-145.69;100.00
1726;BME280;41776;48.260;8.928;2023-03-16T02:06:01;52515.69;;;-145.69;100.00
1726;BME280;41776;48.260;8.928;2023-03-16T02:08:30;52543.41;;;-145.69;100.00
1726;BME280;41776;48.260;8.928;2023-03-16T02:10:59;52551.31;;;-145.69;100.00
1726;BME280;41776;48.260;8.928;2023-03-16T02:13:26;52559.25;;;-145.69;100.00
1726;BME280;41776;48.260;8.928;2023-03-16T02:15:54;52563.22;;;-145.69;100.00
1726;BME280;41776;48.260;8.928;2023-03-16T02:18:20;52543.41;;;-145.69;100.00
1726;BME280;41776;48.260;8.928;2023-03-16T02:20:50;52531.53;;;-145.69;100.00
1726;BME280;41776;48.260;8.928;2023-03-16T02:23:22;52535.47;;;-145.69;100.00
1726;BME280;41776;48.260;8.928;2023-03-16T02:25:56;52577.06;;;-145.69;100.00
1726;BME280;41776;48.260;8.928;2023-03-16T02:28:33;52571.13;;;-145.69;100.00
1726;BME280;41776;48.260;8.928;2023-03-16T02:31:03;52539.44;;;-145.69;100.00
1726;BME280;41776;48.260;8.928;2023-03-16T02:33:31;52523.59;;;-145.69;100.00
1726;BME280;41776;48.260;8.928;2023-03-16T02:35:59;52559.25;;;-145.69;100.00
1726;BME280;41776;48.260;8.928;2023-03-16T02:38:25;52569.16;;;-145.69;100.00
1726;BME280;41776;48.260;8.928;2023-03-16T02:40:56;52543.41;;;-145.69;100.00
1726;BME280;41776;48.260;8.928;2023-03-16T02:43:26;52585.00;;;-145.69;100.00
1726;BME280;41776;48.260;8.928;2023-03-16T02:45:56;52569.16;;;-145.69;100.00
1726;BME280;41776;48.260;8.928;2023-03-16T02:48:32;52511.72;;;-145.69;100.00
1726;BME280;41776;48.260;8.928;2023-03-16T02:51:06;52571.13;;;-145.69;100.00
1726;BME280;41776;48.260;8.928;2023-03-16T02:53:32;52535.47;;;-145.69;100.00
1726;BME280;41776;48.260;8.928;2023-03-16T02:55:59;52543.41;;;-145.69;100.00
1726;BME280;41776;48.260;8.928;2023-03-16T02:58:27;52541.44;;;-145.69;100.00
1726;BME280;41776;48.260;8.928;2023-03-16T03:00:54;52547.38;;;-145.69;100.00
1726;BME280;41776;48.260;8.928;2023-03-16T03:03:21;52539.44;;;-145.69;100.00
1726;BME280;41776;48.260;8.928;2023-03-16T03:05:49;52573.13;;;-145.69;100.00
1726;BME280;41776;48.260;8.928;2023-03-16T03:08:15;52541.44;;;-145.69;100.00
1726;BME280;41776;48.260;8.928;2023-03-16T03:10:44;52551.31;;;-145.69;100.00
1726;BME280;41776;48.260;8.928;2023-03-16T03:13:11;52547.38;;;-145.69;100.00
1726;BME280;41776;48.260;8.928;2023-03-16T03:15:37;52543.41;;;-145.69;100.00
1726;BME280;41776;48.260;8.928;2023-03-16T03:18:07;52598.84;;;-145.69;100.00
1726;BME280;41776;48.260;8.928;2023-03-16T03:20:34;52583.00;;;-145.69;100.00
1726;BME280;41776;48.260;8.928;2023-03-16T03:23:02;52539.44;;;-145.69;100.00
1726;BME280;41776;48.260;8.928;2023-03-16T03:25:29;52565.19;;;-145.69;100.00
1726;BME280;41776;48.260;8.928;2023-03-16T03:27:59;52563.22;;;-145.69;100.00
1726;BME280;41776;48.260;8.928;2023-03-16T03:30:26;52539.44;;;-145.69;100.00
1726;BME280;41776;48.260;8.928;2023-03-16T03:32:53;52539.44;;;-145.69;100.00
1726;BME280;41776;48.260;8.928;2023-03-16T03:35:20;52555.28;;;-145.69;100.00
1726;BME280;41776;48.260;8.928;2023-03-16T03:37:48;52590.94;;;-145.69;100.00
1726;BME280;41776;48.260;8.928;2023-03-16T03:40:18;52577.06;;;-145.69;100.00
1726;BME280;41776;48.260;8.928;2023-03-16T03:42:46;52529.53;;;-145.69;100.00
1726;BME280;41776;48.260;8.928;2023-03-16T03:45:13;52543.41;;;-145.69;100.00
1726;BME280;41776;48.260;8.928;2023-03-16T03:47:40;52557.28;;;-145.69;100.00
1726;BME280;41776;48.260;8.928;2023-03-16T03:50:09;52535.47;;;-145.69;100.00
1726;BME280;41776;48.260;8.928;2023-03-16T03:52:36;52557.28;;;-145.69;100.00
1726;BME280;41776;48.260;8.928;2023-03-16T03:55:03;52547.38;;;-145.69;100.00
1726;BME280;41776;48.260;8.928;2023-03-16T03:57:36;52541.44;;;-145.69;100.00
1726;BME280;41776;48.260;8.928;2023-03-16T04:00:05;52553.31;;;-145.69;100.00
1726;BME280;41776;48.260;8.928;2023-03-16T04:02:35;52553.31;;;-145.69;100.00
1726;BME280;41776;48.260;8.928;2023-03-16T04:05:04;52507.75;;;-145.69;100.00
1726;BME280;41776;48.260;8.928;2023-03-16T04:07:31;52555.28;;;-145.69;100.00
1726;BME280;41776;48.260;8.928;2023-03-16T04:09:58;52565.19;;;-145.69;100.00
1726;BME280;41776;48.260;8.928;2023-03-16T04:12:24;52557.28;;;-145.69;100.00
1726;BME280;41776;48.260;8.928;2023-03-16T04:14:54;52539.44;;;-145.69;100.00
1726;BME280;41776;48.260;8.928;2023-03-16T04:17:21;52565.19;;;-145.69;100.00
1726;BME280;41776;48.260;8.928;2023-03-16T04:19:48;52543.41;;;-145.69;100.00
1726;BME280;41776;48.260;8.928;2023-03-16T04:22:15;52547.38;;;-145.69;100.00
1726;BME280;41776;48.260;8.928;2023-03-16T04:24:44;52547.38;;;-145.69;100.00
1726;BME280;41776;48.260;8.928;2023-03-16T04:27:10;52598.84;;;-145.69;100.00
1726;BME280;41776;48.260;8.928;2023-03-16T04:29:37;52577.06;;;-145.69;100.00
1726;BME280;41776;48.260;8.928;2023-03-16T04:32:09;52569.16;;;-145.69;100.00
1726;BME280;41776;48.260;8.928;2023-03-16T04:34:35;52571.13;;;-145.69;100.00
1726;BME280;41776;48.260;8.928;2023-03-16T04:37:07;52561.22;;;-145.69;100.00
1726;BME280;41776;48.260;8.928;2023-03-16T04:39:34;52539.44;;;-145.69;100.00
1726;BME280;41776;48.260;8.928;2023-03-16T04:42:03;52551.31;;;-145.69;100.00
1726;BME280;41776;48.260;8.928;2023-03-16T04:44:32;52585.00;;;-145.69;100.00
1726;BME280;41776;48.260;8.928;2023-03-16T04:46:59;52565.19;;;-145.69;100.00
1726;BME280;41776;48.260;8.928;2023-03-16T04:49:26;52545.38;;;-145.69;100.00
1726;BME280;41776;48.260;8.928;2023-03-16T04:51:53;52545.38;;;-145.69;100.00
1726;BME280;41776;48.260;8.928;2023-03-16T04:54:19;52586.97;;;-145.69;100.00
1726;BME280;41776;48.260;8.928;2023-03-16T04:56:48;52571.13;;;-145.69;100.00
1726;BME280;41776;48.260;8.928;2023-03-16T04:59:17;52565.19;;;-145.69;100.00
1726;BME280;41776;48.260;8.928;2023-03-16T05:01:44;52571.13;;;-145.69;100.00
1726;BME280;41776;48.260;8.928;2023-03-16T05:04:12;52543.41;;;-145.69;100.00
1726;BME280;41776;48.260;8.928;2023-03-16T05:06:39;52527.56;;;-145.69;100.00
1726;BME280;41776;48.260;8.928;2023-03-16T05:09:09;52551.31;;;-145.69;100.00
1726;BME280;41776;48.260;8.928;2023-03-16T05:11:36;52602.81;;;-145.69;100.00
1726;BME280;41776;48.260;8.928;2023-03-16T05:14:02;52579.06;;;-145.69;100.00
1726;BME280;41776;48.260;8.928;2023-03-16T05:16:29;52571.13;;;-145.69;100.00
1726;BME280;41776;48.260;8.928;2023-03-16T05:18:56;52539.44;;;-145.69;100.00
1726;BME280;41776;48.260;8.928;2023-03-16T05:21:23;52567.16;;;-145.69;100.00
1726;BME280;41776;48.260;8.928;2023-03-16T05:23:51;52565.19;;;-145.69;100.00
1726;BME280;41776;48.260;8.928;2023-03-16T05:26:18;52573.13;;;-145.69;100.00
1726;BME280;41776;48.260;8.928;2023-03-16T05:28:45;52535.47;;;-145.69;100.00
1726;BME280;41776;48.260;8.928;2023-03-16T05:31:11;52583.00;;;-145.69;100.00
1726;BME280;41776;48.260;8.928;2023-03-16T05:33:40;52545.38;;;-145.69;100.00
1726;BME280;41776;48.260;8.928;2023-03-16T05:36:07;52543.41;;;-145.69;100.00
1726;BME280;41776;48.260;8.928;2023-03-16T05:38:33;52537.47;;;-145.69;100.00
1726;BME280;41776;48.260;8.928;2023-03-16T05:41:02;52588.97;;;-145.69;100.00
1726;BME280;41776;48.260;8.928;2023-03-16T05:43:30;52579.06;;;-145.69;100.00
1726;BME280;41776;48.260;8.928;2023-03-16T05:45:58;52561.22;;;-145.69;100.00
1726;BME280;41776;48.260;8.928;2023-03-16T05:48:25;52547.38;;;-145.69;100.00
1726;BME280;41776;48.260;8.928;2023-03-16T05:50:52;52567.16;;;-145.69;100.00
1726;BME280;41776;48.260;8.928;2023-03-16T05:53:19;52543.41;;;-145.69;100.00
1726;BME280;41776;48.260;8.928;2023-03-16T05:55:50;52579.06;;;-145.69;100.00
1726;BME280;41776;48.260;8.928;2023-03-16T05:58:19;52579.06;;;-145.69;100.00
1726;BME280;41776;48.260;8.928;2023-03-16T06:00:45;52559.25;;;-145.69;100.00
1726;BME280;41776;48.260;8.928;2023-03-16T06:03:12;52577.06;;;-145.69;100.00
1726;BME280;41776;48.260;8.928;2023-03-16T06:05:38;52590.94;;;-145.69;100.00
1726;BME280;41776;48.260;8.928;2023-03-16T06:08:07;52557.28;;;-145.69;100.00
1726;BME280;41776;48.260;8.928;2023-03-16T06:10:34;52598.84;;;-145.69;100.00
1726;BME280;41776;48.260;8.928;2023-03-16T06:13:00;52569.16;;;-145.69;100.00
1726;BME280;41776;48.260;8.928;2023-03-16T06:15:28;52588.97;;;-145.69;100.00
1726;BME280;41776;48.260;8.928;2023-03-16T06:17:55;52535.47;;;-145.69;100.00
1726;BME280;41776;48.260;8.928;2023-03-16T06:20:24;52575.09;;;-145.69;100.00
1726;BME280;41776;48.260;8.928;2023-03-16T06:22:51;52575.09;;;-145.69;100.00
1726;BME280;41776;48.260;8.928;2023-03-16T06:25:17;52561.22;;;-145.69;100.00
1726;BME280;41776;48.260;8.928;2023-03-16T06:27:44;52551.31;;;-145.69;100.00
1726;BME280;41776;48.260;8.928;2023-03-16T06:30:13;52573.13;;;-145.69;100.00
1726;BME280;41776;48.260;8.928;2023-03-16T06:32:41;52569.16;;;-145.69;100.00
1726;BME280;41776;48.260;8.928;2023-03-16T06:35:09;52555.28;;;-145.69;100.00
1726;BME280;41776;48.260;8.928;2023-03-16T06:37:37;52583.00;;;-145.69;100.00
1726;BME280;41776;48.260;8.928;2023-03-16T06:40:04;52555.28;;;-145.69;100.00
1726;BME280;41776;48.260;8.928;2023-03-16T06:42:31;52563.22;;;-145.69;100.00
1726;BME280;41776;48.260;8.928;2023-03-16T06:44:57;52537.47;;;-145.69;100.00
1726;BME280;41776;48.260;8.928;2023-03-16T06:47:24;52596.88;;;-145.69;100.00
1726;BME280;41776;48.260;8.928;2023-03-16T06:49:54;52557.28;;;-145.69;100.00
1726;BME280;41776;48.260;8.928;2023-03-16T06:52:24;52565.19;;;-145.69;100.00
1726;BME280;41776;48.260;8.928;2023-03-16T06:54:50;52571.13;;;-145.69;100.00
1726;BME280;41776;48.260;8.928;2023-03-16T06:57:17;52531.53;;;-145.69;100.00
1726;BME280;41776;48.260;8.928;2023-03-16T06:59:48;52559.25;;;-145.69;100.00
1726;BME280;41776;48.260;8.928;2023-03-16T07:02:15;52559.25;;;-145.69;100.00
1726;BME280;41776;48.260;8.928;2023-03-16T07:04:47;52541.44;;;-145.69;100.00
1726;BME280;41776;48.260;8.928;2023-03-16T07:07:16;52571.13;;;-145.69;100.00
1726;BME280;41776;48.260;8.928;2023-03-16T07:09:44;52565.19;;;-145.69;100.00
1726;BME280;41776;48.260;8.928;2023-03-16T07:12:11;52535.47;;;-145.69;100.00
1726;BME280;41776;48.260;8.928;2023-03-16T07:14:39;52545.38;;;-145.69;100.00
1726;BME280;41776;48.260;8.928;2023-03-16T07:17:06;52557.28;;;-145.69;100.00
1726;BME280;41776;48.260;8.928;2023-03-16T07:19:35;52527.56;;;-145.69;100.00
1726;BME280;41776;48.260;8.928;2023-03-16T07:22:02;52543.41;;;-145.69;100.00
1726;BME280;41776;48.260;8.928;2023-03-16T07:24:30;52533.50;;;-145.69;100.00
1726;BME280;41776;48.260;8.928;2023-03-16T07:26:57;52559.25;;;-145.69;100.00
1726;BME280;41776;48.260;8.928;2023-03-16T07:29:23;52575.09;;;-145.69;100.00
1726;BME280;41776;48.260;8.928;2023-03-16T07:31:50;52531.53;;;-145.69;100.00
1726;BME280;41776;48.260;8.928;2023-03-16T07:34:17;52495.88;;;-145.69;100.00
1726;BME280;41776;48.260;8.928;2023-03-16T07:36:44;52535.47;;;-145.69;100.00
1726;BME280;41776;48.260;8.928;2023-03-16T07:39:12;52523.59;;;-145.69;100.00
1726;BME280;41776;48.260;8.928;2023-03-16T07:41:44;52505.78;;;-145.69;100.00
1726;BME280;41776;48.260;8.928;2023-03-16T07:44:10;52539.44;;;-145.69;100.00
1726;BME280;41776;48.260;8.928;2023-03-16T07:46:41;52511.72;;;-145.69;100.00
1726;BME280;41776;48.260;8.928;2023-03-16T07:49:08;52511.72;;;-145.69;100.00
1726;BME280;41776;48.260;8.928;2023-03-16T07:51:36;52511.72;;;-145.69;100.00
1726;BME280;41776;48.260;8.928;2023-03-16T07:54:03;52521.63;;;-145.69;100.00
1726;BME280;41776;48.260;8.928;2023-03-16T07:56:34;52505.78;;;-145.69;100.00
1726;BME280;41776;48.260;8.928;2023-03-16T07:59:02;52499.84;;;-145.69;100.00
1726;BME280;41776;48.260;8.928;2023-03-16T08:01:36;52523.59;;;-145.69;100.00
1726;BME280;41776;48.260;8.928;2023-03-16T08:04:03;52503.81;;;-145.69;100.00
1726;BME280;41776;48.260;8.928;2023-03-16T08:06:30;52535.47;;;-145.69;100.00
1726;BME280;41776;48.260;8.928;2023-03-16T08:08:56;52515.69;;;-145.69;100.00
1726;BME280;41776;48.260;8.928;2023-03-16T08:11:23;52501.81;;;-145.69;100.00
1726;BME280;41776;48.260;8.928;2023-03-16T08:13:52;52539.44;;;-145.69;100.00
1726;BME280;41776;48.260;8.928;2023-03-16T08:16:23;52521.63;;;-145.69;100.00
1726;BME280;41776;48.260;8.928;2023-03-16T08:18:51;52531.53;;;-145.69;100.00
1726;BME280;41776;48.260;8.928;2023-03-16T08:21:19;52484.00;;;-145.69;100.00
1726;BME280;41776;48.260;8.928;2023-03-16T08:23:46;52507.75;;;-145.69;100.00
1726;BME280;41776;48.260;8.928;2023-03-16T08:26:15;52531.53;;;-145.69;100.00
1726;BME280;41776;48.260;8.928;2023-03-16T08:28:42;52515.69;;;-145.69;100.00
1726;BME280;41776;48.260;8.928;2023-03-16T08:31:11;52499.84;;;-145.69;93.65
1726;BME280;41776;48.260;8.928;2023-03-16T08:33:40;52519.63;;;-145.69;94.72
1726;BME280;41776;48.260;8.928;2023-03-16T08:36:09;52495.88;;;-145.69;98.61
1726;BME280;41776;48.260;8.928;2023-03-16T08:38:37;52495.88;;;-145.69;97.46
1726;BME280;41776;48.260;8.928;2023-03-16T08:41:08;52489.94;;;-145.69;98.51
1726;BME280;41776;48.260;8.928;2023-03-16T08:43:47;52507.75;;;-145.69;96.81
1726;BME280;41776;48.260;8.928;2023-03-16T08:46:13;52478.06;;;-145.69;95.33
1726;BME280;41776;48.260;8.928;2023-03-16T08:48:45;52527.56;;;-145.69;86.16
1726;BME280;41776;48.260;8.928;2023-03-16T08:51:12;52476.06;;;-145.69;97.25
1726;BME280;41776;48.260;8.928;2023-03-16T08:53:42;52507.75;;;-145.69;94.19
1726;BME280;41776;48.260;8.928;2023-03-16T08:56:13;52493.91;;;-145.69;85.09
1726;BME280;41776;48.260;8.928;2023-03-16T08:58:40;52476.06;;;-145.69;86.98
1726;BME280;41776;48.260;8.928;2023-03-16T09:01:12;52474.09;;;-145.69;95.10
1726;BME280;41776;48.260;8.928;2023-03-16T09:03:40;52484.00;;;-145.69;81.39
1726;BME280;41776;48.260;8.928;2023-03-16T09:06:10;52466.16;;;-145.69;83.46
1726;BME280;41776;48.260;8.928;2023-03-16T09:08:37;52464.19;;;-145.69;78.79
1726;BME280;41776;48.260;8.928;2023-03-16T09:11:06;52470.13;;;-145.69;86.44
1726;BME280;41776;48.260;8.928;2023-03-16T09:13:33;52484.00;;;-145.69;72.09
1726;BME280;41776;48.260;8.928;2023-03-16T09:16:00;52464.19;;;-145.69;73.43
1726;BME280;41776;48.260;8.928;2023-03-16T09:18:28;52478.06;;;-145.69;89.38
1726;BME280;41776;48.260;8.928;2023-03-16T09:20:56;52474.09;;;-145.69;78.58
1726;BME280;41776;48.260;8.928;2023-03-16T09:23:24;52472.13;;;-145.69;81.01
1726;BME280;41776;48.260;8.928;2023-03-16T09:25:52;52436.47;;;-145.69;75.02
1726;BME280;41776;48.260;8.928;2023-03-16T09:28:18;52491.91;;;-145.69;68.58
1726;BME280;41776;48.260;8.928;2023-03-16T09:30:45;52468.16;;;-145.69;66.38
1726;BME280;41776;48.260;8.928;2023-03-16T09:33:12;52440.44;;;-145.69;64.86
1726;BME280;41776;48.260;8.928;2023-03-16T09:35:39;52470.13;;;-145.69;65.32
1726;BME280;41776;48.260;8.928;2023-03-16T09:38:05;52460.22;;;-145.69;70.97
1726;BME280;41776;48.260;8.928;2023-03-16T09:40:35;52460.22;;;-145.69;67.47
1726;BME280;41776;48.260;8.928;2023-03-16T09:43:17;52444.38;;;-145.69;63.93
1726;BME280;41776;48.260;8.928;2023-03-16T09:45:54;52468.16;;;-145.69;62.96
1726;BME280;41776;48.260;8.928;2023-03-16T09:48:24;52505.78;;;-145.69;70.92
1726;BME280;41776;48.260;8.928;2023-03-16T09:50:55;52462.22;;;-145.69;62.26
1726;BME280;41776;48.260;8.928;2023-03-16T09:53:24;52472.13;;;-145.69;62.20
1726;BME280;41776;48.260;8.928;2023-03-16T09:55:58;52470.13;;;-145.69;59.65
1726;BME280;41776;48.260;8.928;2023-03-16T09:58:26;52464.19;;;-145.69;63.46
1726;BME280;41776;48.260;8.928;2023-03-16T10:01:01;52476.06;;;-145.69;63.77
1726;BME280;41776;48.260;8.928;2023-03-16T10:03:44;52448.34;;;-145.69;67.63
1726;BME280;41776;48.260;8.928;2023-03-16T10:06:21;52454.28;;;-145.69;60.08
1726;BME280;41776;48.260;8.928;2023-03-16T10:08:50;52442.41;;;-145.69;53.27
1726;BME280;41776;48.260;8.928;2023-03-16T10:11:28;52450.31;;;-145.69;51.22
1726;BME280;41776;48.260;8.928;2023-03-16T10:14:01;52468.16;;;-145.69;47.31
1726;BME280;41776;48.260;8.928;2023-03-16T10:16:34;52480.03;;;-145.69;50.34
1726;BME280;41776;48.260;8.928;2023-03-16T10:19:09;52452.31;;;-145.69;48.38
1726;BME280;41776;48.260;8.928;2023-03-16T10:21:39;52438.44;;;-145.69;51.61
1726;BME280;41776;48.260;8.928;2023-03-16T10:24:15;52452.31;;;-145.69;45.59
1726;BME280;41776;48.260;8.928;2023-03-16T10:26:51;52468.16;;;-145.69;50.89
1726;BME280;41776;48.260;8.928;2023-03-16T10:29:19;52452.31;;;-145.69;48.37
1726;BME280;41776;48.260;8.928;2023-03-16T10:31:46;52424.59;;;-145.69;49.56
1726;BME280;41776;48.260;8.928;2023-03-16T10:34:13;52454.28;;;-145.69;53.47
1726;BME280;41776;48.260;8.928;2023-03-16T10:36:43;52456.28;;;-145.69;48.13
1726;BME280;41776;48.260;8.928;2023-03-16T10:39:11;52450.31;;;-145.69;45.37
1726;BME280;41776;48.260;8.928;2023-03-16T10:41:39;52414.69;;;-145.69;49.33
1726;BME280;41776;48.260;8.928;2023-03-16T10:44:12;52434.47;;;-145.69;48.85
1726;BME280;41776;48.260;8.928;2023-03-16T10:46:40;52442.41;;;-145.69;49.00
1726;BME280;41776;48.260;8.928;2023-03-16T10:49:19;52424.59;;;-145.69;51.58
1726;BME280;41776;48.260;8.928;2023-03-16T10:51:47;52424.59;;;-145.69;46.59
1726;BME280;41776;48.260;8.928;2023-03-16T10:54:15;52412.69;;;-145.69;43.47
1726;BME280;41776;48.260;8.928;2023-03-16T10:56:44;52398.84;;;-145.69;46.85
1726;BME280;41776;48.260;8.928;2023-03-16T10:59:26;52424.59;;;-145.69;48.59
1726;BME280;41776;48.260;8.928;2023-03-16T11:01:53;52394.88;;;-145.69;47.17
1726;BME280;41776;48.260;8.928;2023-03-16T11:04:20;52424.59;;;-145.69;47.81
1726;BME280;41776;48.260;8.928;2023-03-16T11:06:50;52460.22;;;-145.69;46.78
1726;BME280;41776;48.260;8.928;2023-03-16T11:09:21;52485.97;;;-145.69;43.19
1726;BME280;41776;48.260;8.928;2023-03-16T11:11:49;52422.59;;;-145.69;42.97
1726;BME280;41776;48.260;8.928;2023-03-16T11:14:26;52416.66;;;-145.69;42.81
1726;BME280;41776;48.260;8.928;2023-03-16T11:16:59;52424.59;;;-145.69;42.90
1726;BME280;41776;48.260;8.928;2023-03-16T11:19:29;52438.44;;;-145.69;46.25
1726;BME280;41776;48.260;8.928;2023-03-16T11:21:59;52436.47;;;-145.69;45.47
1726;BME280;41776;48.260;8.928;2023-03-16T11:24:33;52440.44;;;-145.69;43.94
1726;BME280;41776;48.260;8.928;2023-03-16T11:27:10;52426.56;;;-145.69;44.30
1726;BME280;41776;48.260;8.928;2023-03-16T11:29:48;52390.91;;;-145.69;44.58
1726;BME280;41776;48.260;8.928;2023-03-16T11:32:20;52422.59;;;-145.69;43.10
1726;BME280;41776;48.260;8.928;2023-03-16T11:34:50;52400.81;;;-145.69;43.81
1726;BME280;41776;48.260;8.928;2023-03-16T11:37:24;52438.44;;;-145.69;45.52
1726;BME280;41776;48.260;8.928;2023-03-16T11:40:01;52420.63;;;-145.69;43.72
1726;BME280;41776;48.260;8.928;2023-03-16T11:42:36;52400.81;;;-145.69;44.63
1726;BME280;41776;48.260;8.928;2023-03-16T11:45:18;52396.84;;;-145.69;43.20
1726;BME280;41776;48.260;8.928;2023-03-16T11:50:51;52392.91;;;-145.69;43.94
1726;BME280;41776;48.260;8.928;2023-03-16T11:53:28;52384.97;;;-145.69;45.75
1726;BME280;41776;48.260;8.928;2023-03-16T11:56:06;52341.41;;;-145.69;44.27
1726;BME280;41776;48.260;8.928;2023-03-16T11:58:54;52373.09;;;-145.69;43.02
1726;BME280;41776;48.260;8.928;2023-03-16T12:01:32;52381.00;;;-145.69;41.81
1726;BME280;41776;48.260;8.928;2023-03-16T12:04:16;52388.94;;;-145.69;42.04
1726;BME280;41776;48.260;8.928;2023-03-16T12:06:55;52388.94;;;-145.69;39.81
1726;BME280;41776;48.260;8.928;2023-03-16T12:12:37;52373.09;;;-145.69;40.70
1726;BME280;41776;48.260;8.928;2023-03-16T12:15:22;52369.13;;;-145.69;42.74
1726;BME280;41776;48.260;8.928;2023-03-16T12:17:55;52381.00;;;-145.69;39.93
1726;BME280;41776;48.260;8.928;2023-03-16T12:20:25;52404.78;;;-145.69;40.96
1726;BME280;41776;48.260;8.928;2023-03-16T12:22:57;52381.00;;;-145.69;38.21
1726;BME280;41776;48.260;8.928;2023-03-16T12:25:28;52386.97;;;-145.69;42.06
1726;BME280;41776;48.260;8.928;2023-03-16T12:27:58;52379.03;;;-145.69;41.18
1726;BME280;41776;48.260;8.928;2023-03-16T12:30:35;52349.31;;;-145.69;41.27
1726;BME280;41776;48.260;8.928;2023-03-16T12:33:11;52381.00;;;-145.69;39.11
1726;BME280;41776;48.260;8.928;2023-03-16T12:35:43;52351.31;;;-145.69;38.17
1726;BME280;41776;48.260;8.928;2023-03-16T12:41:09;52392.91;;;-145.69;37.75
1726;BME280;41776;48.260;8.928;2023-03-16T12:43:44;52363.19;;;-145.69;42.50
1726;BME280;41776;48.260;8.928;2023-03-16T12:46:13;52369.13;;;-145.69;38.34
1726;BME280;41776;48.260;8.928;2023-03-16T12:48:43;52369.13;;;-145.69;38.91
1726;BME280;41776;48.260;8.928;2023-03-16T12:51:13;52369.13;;;-145.69;38.63
1726;BME280;41776;48.260;8.928;2023-03-16T12:53:43;52365.16;;;-145.69;39.67
1726;BME280;41776;48.260;8.928;2023-03-16T12:56:11;52347.34;;;-145.69;38.49
1726;BME280;41776;48.260;8.928;2023-03-16T12:58:44;52369.13;;;-145.69;38.27
1726;BME280;41776;48.260;8.928;2023-03-16T13:01:12;52375.06;;;-145.69;39.14
1726;BME280;41776;48.260;8.928;2023-03-16T13:03:43;52337.44;;;-145.69;37.63